createdAt,value
2022-11-16T00:01:35.295Z,11.48
2022-11-16T00:04:03.105Z,12.00
2022-11-16T00:06:30.405Z,11.95
2022-11-16T00:09:00.136Z,11.88
2022-11-16T00:11:26.980Z,11.70
2022-11-16T00:13:53.836Z,12.32
2022-11-16T00:16:20.632Z,11.77
2022-11-16T00:18:47.431Z,12.15
2022-11-16T00:21:14.136Z,11.98
2022-11-16T00:23:41.289Z,12.50
2022-11-16T00:26:12.395Z,12.02
2022-11-16T00:28:39.346Z,12.15
2022-11-16T00:31:07.477Z,12.52
2022-11-16T00:33:34.509Z,11.68
2022-11-16T00:36:03.218Z,11.33
2022-11-16T00:38:30.383Z,12.48
2022-11-16T00:40:57.397Z,11.50
2022-11-16T00:43:24.656Z,11.65
2022-11-16T00:45:51.444Z,12.70
2022-11-16T00:48:18.581Z,13.20
2022-11-16T00:50:46.502Z,13.52
2022-11-16T00:53:15.858Z,13.10
2022-11-16T00:55:44.920Z,12.50
2022-11-16T00:58:13.302Z,13.40
2022-11-16T01:00:43.178Z,14.33
2022-11-16T01:03:10.722Z,14.50
2022-11-16T01:05:38.082Z,14.20
2022-11-16T01:08:05.349Z,14.27
2022-11-16T01:10:32.919Z,14.40
2022-11-16T01:12:59.965Z,14.90
2022-11-16T01:15:28.079Z,15.15
2022-11-16T01:17:56.768Z,13.27
2022-11-16T01:20:29.231Z,13.73
2022-11-16T01:22:56.682Z,13.90
2022-11-16T01:25:23.520Z,14.10
2022-11-16T01:27:50.431Z,14.52
2022-11-16T01:30:28.124Z,15.73
2022-11-16T01:33:02.694Z,14.63
2022-11-16T01:35:29.574Z,14.88
2022-11-16T01:37:56.382Z,15.80
2022-11-16T01:40:23.371Z,15.57
2022-11-16T01:42:50.273Z,16.55
2022-11-16T01:45:21.501Z,16.52
2022-11-16T01:47:53.830Z,16.08
2022-11-16T01:50:24.492Z,14.33
2022-11-16T01:53:04.555Z,16.73
2022-11-16T01:55:41.057Z,16.25
2022-11-16T01:58:26.354Z,16.90
2022-11-16T02:00:59.225Z,16.75
2022-11-16T02:03:41.365Z,16.23
2022-11-16T02:06:27.208Z,16.50
2022-11-16T02:09:43.293Z,15.38
2022-11-16T02:13:07.305Z,16.70
2022-11-16T02:15:49.646Z,14.75
2022-11-16T02:18:41.636Z,15.13
2022-11-16T02:21:30.812Z,15.73
2022-11-16T02:24:42.585Z,16.35
2022-11-16T02:27:49.634Z,16.42
2022-11-16T02:30:18.980Z,16.02
2022-11-16T02:33:03.075Z,15.73
2022-11-16T02:35:52.566Z,15.95
2022-11-16T02:38:27.197Z,16.15
2022-11-16T02:41:19.136Z,15.15
2022-11-16T02:43:52.667Z,16.63
2022-11-16T02:46:29.374Z,15.27
2022-11-16T02:49:01.055Z,16.42
2022-11-16T02:51:29.530Z,16.98
2022-11-16T02:54:03.267Z,14.55
2022-11-16T02:56:56.678Z,15.02
2022-11-16T02:59:33.575Z,14.33
2022-11-16T03:02:17.527Z,13.77
2022-11-16T03:04:49.346Z,14.95
2022-11-16T03:07:21.362Z,14.15
2022-11-16T03:09:50.519Z,14.55
2022-11-16T03:12:22.672Z,14.43
2022-11-16T03:14:54.767Z,16.10
2022-11-16T03:17:32.148Z,15.23
2022-11-16T03:20:03.916Z,14.88
2022-11-16T03:22:39.660Z,15.38
2022-11-16T03:25:09.178Z,14.60
2022-11-16T03:27:45.234Z,15.52
2022-11-16T03:30:23.344Z,14.70
2022-11-16T03:33:07.069Z,14.88
2022-11-16T03:35:56.612Z,14.65
2022-11-16T03:38:26.641Z,14.90
2022-11-16T03:40:58.798Z,14.15
2022-11-16T03:43:27.352Z,15.50
2022-11-16T03:45:56.101Z,14.40
2022-11-16T03:48:24.269Z,14.68
2022-11-16T03:50:52.711Z,14.70
2022-11-16T03:53:20.340Z,14.90
2022-11-16T03:55:49.904Z,14.88
2022-11-16T03:58:17.860Z,14.57
2022-11-16T04:00:45.852Z,13.80
2022-11-16T04:03:12.912Z,14.10
2022-11-16T04:05:40.117Z,14.40
2022-11-16T04:08:15.105Z,14.88
2022-11-16T04:10:44.472Z,14.93
2022-11-16T04:13:14.502Z,14.18
2022-11-16T04:15:41.398Z,16.23
2022-11-16T04:18:11.212Z,14.40
2022-11-16T04:20:38.100Z,14.50
2022-11-16T04:23:07.416Z,15.32
2022-11-16T04:25:38.366Z,15.80
2022-11-16T04:28:13.886Z,15.17
2022-11-16T04:30:50.832Z,15.52
2022-11-16T04:33:19.285Z,15.45
2022-11-16T04:35:46.522Z,15.60
2022-11-16T04:38:14.598Z,15.80
2022-11-16T04:40:41.397Z,14.70
2022-11-16T04:43:11.169Z,14.98
2022-11-16T04:45:40.853Z,15.43
2022-11-16T04:48:10.655Z,14.77
2022-11-16T04:50:38.205Z,14.93
2022-11-16T04:53:05.895Z,15.00
2022-11-16T04:55:38.912Z,16.48
2022-11-16T04:58:06.054Z,15.75
2022-11-16T05:00:32.958Z,14.85
2022-11-16T05:03:01.825Z,17.13
2022-11-16T05:05:29.856Z,15.67
2022-11-16T05:07:58.447Z,15.68
2022-11-16T05:10:28.520Z,15.18
2022-11-16T05:12:56.227Z,15.57
2022-11-16T05:15:24.149Z,15.57
2022-11-16T05:17:51.008Z,16.73
2022-11-16T05:20:21.810Z,15.93
2022-11-16T05:22:54.648Z,15.63
2022-11-16T05:25:23.969Z,15.60
2022-11-16T05:27:51.467Z,15.23
2022-11-16T05:30:18.751Z,17.13
2022-11-16T05:32:45.649Z,16.15
2022-11-16T05:35:14.550Z,15.75
2022-11-16T05:37:42.683Z,17.10
2022-11-16T05:40:10.529Z,16.52
2022-11-16T05:42:43.839Z,15.90
2022-11-16T05:45:10.739Z,16.15
2022-11-16T05:47:37.660Z,15.48
2022-11-16T05:50:04.873Z,15.80
2022-11-16T05:52:38.053Z,20.40
2022-11-16T05:55:08.899Z,16.67
2022-11-16T05:57:41.783Z,16.15
2022-11-16T06:00:09.927Z,18.15
2022-11-16T06:02:45.413Z,15.68
2022-11-16T06:05:20.162Z,17.73
2022-11-16T06:07:48.097Z,17.07
2022-11-16T06:10:15.420Z,17.83
2022-11-16T06:12:44.344Z,17.55
2022-11-16T06:15:11.249Z,15.95
2022-11-16T06:17:38.096Z,17.05
2022-11-16T06:20:07.085Z,16.53
2022-11-16T06:22:37.079Z,17.42
2022-11-16T06:25:05.646Z,17.02
2022-11-16T06:27:37.704Z,15.43
2022-11-16T06:30:05.020Z,16.02
2022-11-16T06:32:33.591Z,15.77
2022-11-16T06:35:00.726Z,16.90
2022-11-16T06:37:28.079Z,17.15
2022-11-16T06:39:55.818Z,17.92
2022-11-16T06:42:23.764Z,16.73
2022-11-16T06:44:51.748Z,15.60
2022-11-16T06:47:22.731Z,14.95
2022-11-16T06:49:49.639Z,15.63
2022-11-16T06:52:21.092Z,16.17
2022-11-16T06:54:48.259Z,17.42
2022-11-16T06:57:15.103Z,17.23
2022-11-16T06:59:41.907Z,16.30
2022-11-16T07:02:11.103Z,16.23
2022-11-16T07:04:38.802Z,15.63
2022-11-16T07:07:05.761Z,16.77
2022-11-16T07:09:34.650Z,15.67
2022-11-16T07:12:01.427Z,14.68
2022-11-16T07:14:34.772Z,14.73
2022-11-16T07:17:09.097Z,13.80
2022-11-16T07:19:36.521Z,13.60
2022-11-16T07:22:03.773Z,13.20
2022-11-16T07:24:30.871Z,13.10
2022-11-16T07:26:57.855Z,12.43
2022-11-16T07:29:27.101Z,12.40
2022-11-16T07:32:22.864Z,13.25
2022-11-16T07:35:12.233Z,10.83
2022-11-16T07:37:39.832Z,12.07
2022-11-16T07:40:08.964Z,11.48
2022-11-16T07:42:38.334Z,9.75
2022-11-16T07:45:25.578Z,9.35
2022-11-16T07:47:57.465Z,10.13
2022-11-16T07:51:04.627Z,9.95
2022-11-16T07:53:33.935Z,10.75
2022-11-16T07:56:01.357Z,11.77
2022-11-16T07:58:32.947Z,10.90
2022-11-16T08:01:08.065Z,10.97
2022-11-16T08:03:36.009Z,10.27
2022-11-16T08:06:13.202Z,11.13
2022-11-16T08:08:43.298Z,10.52
2022-11-16T08:11:12.678Z,11.38
2022-11-16T08:13:41.328Z,10.80
2022-11-16T08:16:19.049Z,10.65
2022-11-16T08:18:48.100Z,9.35
2022-11-16T08:21:17.908Z,9.85
2022-11-16T08:23:46.927Z,10.90
2022-11-16T08:26:17.788Z,10.03
2022-11-16T08:28:50.188Z,8.85
2022-11-16T08:31:21.793Z,9.32
2022-11-16T08:33:52.621Z,9.13
2022-11-16T08:36:20.542Z,10.00
2022-11-16T08:38:50.759Z,9.97
2022-11-16T08:41:20.878Z,9.13
2022-11-16T08:43:48.819Z,10.35
2022-11-16T08:46:15.724Z,9.70
2022-11-16T08:48:46.512Z,9.40
2022-11-16T08:51:17.829Z,8.97
2022-11-16T08:53:55.225Z,9.30
2022-11-16T08:56:22.294Z,8.55
2022-11-16T08:58:53.802Z,6.43
2022-11-16T09:01:26.435Z,5.97
2022-11-16T09:03:53.652Z,6.53
2022-11-16T09:06:21.046Z,6.50
2022-11-16T09:08:47.905Z,6.60
2022-11-16T09:11:17.312Z,7.28
2022-11-16T09:13:45.676Z,7.45
2022-11-16T09:16:12.827Z,7.50
2022-11-16T09:18:39.614Z,6.80
2022-11-16T09:21:06.490Z,9.05
2022-11-16T09:23:33.247Z,10.07
2022-11-16T09:26:05.377Z,9.02
2022-11-16T09:28:32.825Z,8.80
2022-11-16T09:31:02.044Z,9.07
2022-11-16T09:33:30.824Z,8.88
2022-11-16T09:36:02.140Z,8.30
2022-11-16T09:38:40.587Z,7.45
2022-11-16T09:41:15.753Z,8.30
2022-11-16T09:44:02.187Z,8.23
2022-11-16T09:46:36.097Z,8.60
2022-11-16T09:49:17.192Z,8.65
2022-11-16T09:51:49.440Z,7.43
2022-11-16T09:54:20.125Z,7.67
2022-11-16T09:56:51.688Z,7.57
2022-11-16T09:59:25.703Z,8.73
2022-11-16T10:02:05.246Z,8.50
2022-11-16T10:04:40.414Z,9.02
2022-11-16T10:07:18.201Z,8.87
2022-11-16T10:09:46.445Z,8.52
2022-11-16T10:12:41.308Z,8.45
2022-11-16T10:15:31.490Z,7.63
2022-11-16T10:18:24.356Z,6.30
2022-11-16T10:20:59.859Z,6.90
2022-11-16T10:23:46.756Z,5.90
2022-11-16T10:26:58.509Z,6.72
2022-11-16T10:30:02.198Z,6.00
2022-11-16T10:32:32.361Z,6.53
2022-11-16T10:35:03.633Z,6.37
2022-11-16T10:37:37.452Z,6.00
2022-11-16T10:40:16.853Z,5.80
2022-11-16T10:42:46.789Z,5.90
2022-11-16T10:45:19.822Z,6.72
2022-11-16T10:47:53.751Z,6.57
2022-11-16T10:50:49.962Z,6.85
2022-11-16T10:53:46.358Z,6.47
2022-11-16T10:56:18.990Z,6.07
2022-11-16T10:59:06.646Z,5.97
2022-11-16T11:01:45.375Z,5.30
2022-11-16T11:04:27.111Z,5.40
2022-11-16T11:07:30.013Z,6.20
2022-11-16T11:09:56.840Z,6.07
2022-11-16T11:12:25.374Z,6.03
2022-11-16T11:15:10.578Z,5.77
2022-11-16T11:17:39.824Z,5.57
2022-11-16T11:20:17.270Z,5.53
2022-11-16T11:22:53.279Z,5.50
2022-11-16T11:25:25.347Z,5.60
2022-11-16T11:28:19.979Z,5.27
2022-11-16T11:31:17.038Z,5.78
2022-11-16T11:33:51.824Z,6.05
2022-11-16T11:36:25.060Z,6.38
2022-11-16T11:39:21.240Z,5.95
2022-11-16T11:42:14.553Z,5.80
2022-11-16T11:44:44.039Z,6.32
2022-11-16T11:48:01.188Z,5.80
2022-11-16T11:50:33.893Z,5.80
2022-11-16T11:53:34.833Z,5.85
2022-11-16T11:56:01.992Z,5.73
2022-11-16T11:58:35.165Z,5.95
2022-11-16T12:01:22.218Z,5.53
2022-11-16T12:04:28.976Z,5.40
2022-11-16T12:07:32.881Z,5.18
2022-11-16T12:10:03.789Z,5.60
2022-11-16T12:12:55.358Z,6.15
2022-11-16T12:16:19.015Z,6.63
2022-11-16T12:19:19.679Z,6.78
2022-11-16T12:22:17.368Z,6.85
2022-11-16T12:24:49.859Z,6.33
2022-11-16T12:27:35.969Z,6.00
2022-11-16T12:30:16.563Z,5.88
2022-11-16T12:33:00.662Z,5.85
2022-11-16T12:35:45.407Z,6.03
2022-11-16T12:38:39.231Z,5.90
2022-11-16T12:41:08.928Z,5.97
2022-11-16T12:43:54.410Z,6.30
2022-11-16T12:46:44.839Z,5.85
2022-11-16T12:49:50.318Z,6.50
2022-11-16T12:52:52.879Z,6.20
2022-11-16T12:55:28.769Z,6.18
2022-11-16T12:58:04.716Z,6.10
2022-11-16T13:00:53.563Z,5.68
2022-11-16T13:03:29.685Z,5.28
2022-11-16T13:06:06.748Z,5.53
2022-11-16T13:08:58.232Z,5.38
2022-11-16T13:11:55.123Z,4.47
2022-11-16T13:14:33.561Z,4.25
2022-11-16T13:17:02.537Z,4.13
2022-11-16T13:19:30.605Z,3.80
2022-11-16T13:21:57.339Z,3.97
2022-11-16T13:24:59.820Z,4.80
2022-11-16T13:27:32.655Z,3.17
2022-11-16T13:30:18.356Z,3.10
2022-11-16T13:33:27.348Z,2.23
2022-11-16T13:35:54.357Z,3.10
2022-11-16T13:38:51.266Z,2.92
2022-11-16T13:41:38.325Z,2.67
2022-11-16T13:44:33.419Z,2.80
2022-11-16T13:47:05.057Z,2.90
2022-11-16T13:49:41.675Z,3.17
2022-11-16T13:52:40.436Z,3.15
2022-11-16T13:55:13.822Z,3.70
2022-11-16T13:57:52.274Z,3.67
2022-11-16T14:00:23.479Z,3.30
2022-11-16T14:03:10.561Z,3.40
2022-11-16T14:05:40.635Z,3.88
2022-11-16T14:08:30.525Z,4.35
2022-11-16T14:11:01.217Z,3.85
2022-11-16T14:13:40.216Z,3.40
2022-11-16T14:16:30.032Z,3.05
2022-11-16T14:18:59.821Z,3.45
2022-11-16T14:21:46.500Z,3.20
2022-11-16T14:24:38.009Z,3.58
2022-11-16T14:27:31.457Z,3.60
2022-11-16T14:30:24.861Z,4.35
2022-11-16T14:32:55.260Z,3.83
2022-11-16T14:35:40.769Z,4.60
2022-11-16T14:38:36.349Z,3.60
2022-11-16T14:41:06.409Z,3.47
2022-11-16T14:43:42.606Z,3.45
2022-11-16T14:46:35.890Z,3.75
2022-11-16T14:49:03.359Z,3.55
2022-11-16T14:51:43.413Z,4.30
2022-11-16T14:54:27.009Z,4.17
2022-11-16T14:57:06.492Z,4.00
2022-11-16T14:59:33.263Z,4.20
2022-11-16T15:02:12.495Z,3.83
2022-11-16T15:04:39.777Z,4.28
2022-11-16T15:07:07.634Z,4.20
2022-11-16T15:09:37.761Z,4.43
2022-11-16T15:12:11.883Z,4.53
2022-11-16T15:14:46.133Z,4.57
2022-11-16T15:17:19.393Z,4.63
2022-11-16T15:20:15.384Z,4.27
2022-11-16T15:22:45.909Z,4.32
2022-11-16T15:25:28.167Z,4.60
2022-11-16T15:27:57.053Z,4.20
2022-11-16T15:30:33.525Z,4.20
2022-11-16T15:33:10.999Z,4.30
2022-11-16T15:35:38.444Z,4.25
2022-11-16T15:38:28.446Z,4.20
2022-11-16T15:41:01.298Z,4.15
2022-11-16T15:44:01.469Z,5.07
2022-11-16T15:46:33.606Z,4.10
2022-11-16T15:49:01.165Z,4.10
2022-11-16T15:51:28.017Z,4.05
2022-11-16T15:53:55.798Z,4.63
2022-11-16T15:56:25.729Z,4.47
2022-11-16T15:58:58.343Z,4.83
2022-11-16T16:01:25.997Z,4.43
2022-11-16T16:03:57.310Z,4.28
2022-11-16T16:06:58.447Z,4.50
2022-11-16T16:09:28.937Z,4.80
2022-11-16T16:12:14.469Z,5.47
2022-11-16T16:14:41.618Z,5.40
2022-11-16T16:17:10.308Z,5.50
2022-11-16T16:19:41.902Z,5.32
2022-11-16T16:22:26.519Z,4.50
2022-11-16T16:24:53.723Z,4.40
2022-11-16T16:27:26.199Z,4.18
2022-11-16T16:29:55.249Z,4.88
2022-11-16T16:32:32.450Z,4.38
2022-11-16T16:35:01.820Z,5.32
2022-11-16T16:37:31.591Z,5.37
2022-11-16T16:39:58.895Z,4.80
2022-11-16T16:42:25.804Z,5.20
2022-11-16T16:44:53.077Z,4.53
2022-11-16T16:47:20.856Z,4.78
2022-11-16T16:49:51.365Z,5.20
2022-11-16T16:52:18.276Z,5.10
2022-11-16T16:54:46.094Z,5.07
2022-11-16T16:57:18.035Z,5.00
2022-11-16T16:59:46.463Z,5.25
2022-11-16T17:02:14.346Z,5.60
2022-11-16T17:04:41.667Z,5.20
2022-11-16T17:07:08.649Z,5.07
2022-11-16T17:09:37.257Z,4.55
2022-11-16T17:12:05.045Z,4.97
2022-11-16T17:14:32.195Z,4.63
2022-11-16T17:17:02.358Z,5.07
2022-11-16T17:19:30.418Z,4.30
2022-11-16T17:21:57.666Z,4.00
2022-11-16T17:24:25.397Z,4.40
2022-11-16T17:26:53.060Z,4.90
2022-11-16T17:29:20.451Z,4.32
2022-11-16T17:31:48.263Z,4.75
2022-11-16T17:34:17.216Z,4.53
2022-11-16T17:36:44.887Z,4.88
2022-11-16T17:39:12.547Z,4.80
2022-11-16T17:41:40.161Z,5.40
2022-11-16T17:44:08.707Z,6.43
2022-11-16T17:46:37.689Z,6.10
2022-11-16T17:49:05.383Z,5.85
2022-11-16T17:51:40.129Z,5.53
2022-11-16T17:54:07.561Z,4.72
2022-11-16T17:56:36.470Z,4.60
2022-11-16T17:59:04.360Z,4.20
2022-11-16T18:01:31.733Z,4.30
2022-11-16T18:04:01.091Z,4.50
2022-11-16T18:06:28.910Z,3.85
2022-11-16T18:08:57.401Z,3.47
2022-11-16T18:11:28.238Z,2.92
2022-11-16T18:14:01.321Z,2.95
2022-11-16T18:16:32.039Z,3.40
2022-11-16T18:19:06.007Z,3.05
2022-11-16T18:21:41.575Z,3.25
2022-11-16T18:24:10.332Z,2.97
2022-11-16T18:26:39.113Z,3.15
2022-11-16T18:29:08.866Z,3.10
2022-11-16T18:31:36.473Z,2.50
2022-11-16T18:34:04.521Z,2.15
2022-11-16T18:36:32.184Z,2.35
2022-11-16T18:39:00.672Z,2.30
2022-11-16T18:41:29.949Z,1.80
2022-11-16T18:44:02.344Z,1.70
2022-11-16T18:46:32.570Z,1.63
2022-11-16T18:49:01.226Z,1.50
2022-11-16T18:51:30.543Z,1.33
2022-11-16T18:53:58.117Z,1.17
2022-11-16T18:56:26.615Z,1.65
2022-11-16T18:58:54.245Z,1.20
2022-11-16T19:01:25.029Z,1.10
2022-11-16T19:03:55.358Z,1.30
2022-11-16T19:06:24.109Z,0.90
2022-11-16T19:09:08.462Z,1.20
2022-11-16T19:11:46.764Z,0.82
2022-11-16T19:14:18.134Z,1.15
2022-11-16T19:20:08.839Z,0.90
2022-11-16T19:22:37.929Z,1.10
2022-11-16T19:25:06.247Z,1.10
2022-11-16T19:27:35.338Z,1.00
2022-11-16T19:30:03.278Z,0.98
2022-11-16T19:32:32.623Z,1.10
2022-11-16T19:35:00.349Z,0.90
2022-11-16T19:37:29.746Z,0.85
2022-11-16T19:39:57.482Z,1.00
2022-11-16T19:42:29.629Z,1.10
2022-11-16T19:44:57.382Z,1.03
2022-11-16T19:47:25.022Z,1.10
2022-11-16T19:49:53.423Z,1.08
2022-11-16T19:52:20.924Z,1.20
2022-11-16T19:54:48.712Z,1.48
2022-11-16T19:57:49.706Z,1.00
2022-11-16T20:00:22.893Z,1.15
2022-11-16T20:02:50.919Z,1.08
2022-11-16T20:05:18.681Z,0.95
2022-11-16T20:07:46.446Z,1.10
2022-11-16T20:10:14.183Z,1.07
2022-11-16T20:12:41.682Z,1.10
2022-11-16T20:15:09.903Z,1.10
2022-11-16T20:17:37.689Z,0.88
2022-11-16T20:20:05.743Z,1.10
2022-11-16T20:22:33.194Z,1.40
2022-11-16T20:25:00.902Z,1.20
2022-11-16T20:27:28.904Z,1.25
2022-11-16T20:29:56.839Z,1.20
2022-11-16T20:32:24.727Z,1.00
2022-11-16T20:34:52.216Z,1.60
2022-11-16T20:37:19.943Z,1.50
2022-11-16T20:39:48.255Z,1.25
2022-11-16T20:42:15.958Z,1.35
2022-11-16T20:44:44.355Z,1.30
2022-11-16T20:47:13.193Z,1.13
2022-11-16T20:49:41.728Z,1.10
2022-11-16T20:52:09.326Z,1.00
2022-11-16T20:54:36.847Z,1.13
2022-11-16T20:57:04.057Z,0.95
2022-11-16T20:59:32.728Z,1.10
2022-11-16T21:02:00.049Z,1.20
2022-11-16T21:04:27.556Z,1.35
2022-11-16T21:06:54.719Z,1.10
2022-11-16T21:09:21.503Z,1.23
2022-11-16T21:11:49.149Z,1.20
2022-11-16T21:14:16.324Z,1.20
2022-11-16T21:16:44.148Z,0.98
2022-11-16T21:19:12.194Z,1.10
2022-11-16T21:21:39.211Z,1.27
2022-11-16T21:24:07.383Z,1.30
2022-11-16T21:26:35.179Z,1.30
2022-11-16T21:29:02.088Z,1.30
2022-11-16T21:31:31.470Z,1.30
2022-11-16T21:33:59.258Z,0.88
2022-11-16T21:36:28.128Z,0.97
2022-11-16T21:38:56.670Z,0.98
2022-11-16T21:41:25.193Z,1.05
2022-11-16T21:43:51.993Z,1.20
2022-11-16T21:46:24.029Z,1.15
2022-11-16T21:48:51.313Z,1.17
2022-11-16T21:51:20.254Z,1.20
2022-11-16T21:53:47.500Z,1.00
2022-11-16T21:56:17.201Z,1.00
2022-11-16T21:58:44.955Z,1.25
2022-11-16T22:01:13.449Z,0.90
2022-11-16T22:03:40.434Z,0.80
2022-11-16T22:06:11.839Z,1.42
2022-11-16T22:08:39.832Z,0.90
2022-11-16T22:11:09.143Z,1.30
2022-11-16T22:13:37.692Z,1.10
2022-11-16T22:16:09.235Z,0.93
2022-11-16T22:18:36.468Z,1.10
2022-11-16T22:21:04.427Z,1.00
2022-11-16T22:23:32.115Z,1.30
2022-11-16T22:26:03.926Z,1.60
2022-11-16T22:28:32.235Z,1.40
2022-11-16T22:31:03.703Z,1.60
2022-11-16T22:33:30.590Z,1.80
2022-11-16T22:35:57.905Z,1.90
2022-11-16T22:38:24.795Z,1.60
2022-11-16T22:40:52.936Z,1.85
2022-11-16T22:43:21.596Z,1.90
2022-11-16T22:45:48.407Z,1.60
2022-11-16T22:48:15.490Z,1.90
2022-11-16T22:50:42.690Z,1.50
2022-11-16T22:53:10.468Z,1.50
2022-11-16T22:55:38.652Z,1.50
2022-11-16T22:58:06.391Z,1.60
2022-11-16T23:00:38.967Z,1.20
2022-11-16T23:03:06.108Z,1.30
2022-11-16T23:05:32.959Z,1.10
2022-11-16T23:07:59.753Z,1.38
2022-11-16T23:10:26.732Z,1.30
2022-11-16T23:12:54.167Z,1.00
2022-11-16T23:15:20.898Z,1.33
2022-11-16T23:17:47.756Z,1.50
2022-11-16T23:20:17.615Z,1.67
2022-11-16T23:22:45.132Z,1.80
2022-11-16T23:25:12.412Z,1.92
2022-11-16T23:27:57.433Z,1.90
2022-11-16T23:30:24.908Z,2.10
2022-11-16T23:32:51.934Z,1.67
2022-11-16T23:35:18.963Z,2.00
2022-11-16T23:37:53.368Z,1.80
2022-11-16T23:40:21.406Z,1.63
2022-11-16T23:42:48.430Z,1.90
2022-11-16T23:45:15.233Z,2.20
2022-11-16T23:47:42.006Z,1.90
2022-11-16T23:50:09.197Z,2.40
2022-11-16T23:52:37.048Z,1.97
2022-11-16T23:55:04.117Z,2.40
2022-11-16T23:57:30.963Z,2.35
2022-11-16T23:59:57.719Z,2.38
